Time;durP1;ratioP1;P1;durP2;ratioP2;P2;SDS_P1;SDS_P2;PMS_P1;PMS_P2;Temp;Humidity;BMP_temperature;BMP_pressure;BME280_temperature;BME280_humidity;BME280_pressure;Samples;Min_cycle;Max_cycle;Signal;HPM_P1;HPM_P2
2022/02/07 00:01:00;;;;;;;6.07;0.65;;;3.30;99.90;;;;;;6079716;23;20380;-85
2022/02/07 00:03:09;;;;;;;1.42;0.60;;;3.20;99.90;;;;;;6101761;23;20010;-85
2022/02/07 00:05:36;;;;;;;5.25;0.40;;;3.00;99.90;;;;;;6073471;23;20036;-85
2022/02/07 00:08:01;;;;;;;1.35;0.40;;;3.00;99.90;;;;;;6069977;23;20482;-85
2022/02/07 00:10:27;;;;;;;3.33;0.30;;;2.90;99.90;;;;;;6068809;23;20021;-86
2022/02/07 00:12:53;;;;;;;3.35;0.77;;;2.80;99.90;;;;;;6071290;23;20068;-85
2022/02/07 00:15:19;;;;;;;1.83;0.40;;;2.70;99.90;;;;;;6057651;23;20522;-85
2022/02/07 00:17:45;;;;;;;6.43;0.60;;;2.70;99.90;;;;;;6069214;23;20013;-85
2022/02/07 00:20:15;;;;;;;3.47;0.50;;;2.70;99.90;;;;;;6071357;23;20454;-86
2022/02/07 00:22:41;;;;;;;2.38;0.52;;;2.50;99.90;;;;;;6047534;23;20318;-85
2022/02/07 00:25:06;;;;;;;3.05;0.32;;;2.60;99.90;;;;;;6093570;23;20068;-85
2022/02/07 00:27:32;;;;;;;4.80;0.70;;;2.50;99.90;;;;;;6071278;23;20031;-85
2022/02/07 00:30:00;;;;;;;2.17;0.40;;;2.50;99.90;;;;;;6071184;23;20021;-85
2022/02/07 00:32:28;;;;;;;6.65;0.90;;;2.60;99.90;;;;;;6075299;23;20060;-86
2022/02/07 00:34:53;;;;;;;3.78;1.23;;;2.60;99.90;;;;;;6071082;23;20466;-85
2022/02/07 00:37:19;;;;;;;7.53;1.80;;;2.50;99.90;;;;;;6057750;23;20010;-86
2022/02/07 00:39:53;;;;;;;4.47;1.33;;;2.50;99.90;;;;;;6076480;23;20010;-86
2022/02/07 00:42:28;;;;;;;5.55;1.23;;;2.40;99.90;;;;;;6064351;23;20017;-86
2022/02/07 00:44:55;;;;;;;8.10;2.45;;;2.20;99.90;;;;;;6074109;23;20013;-85
2022/02/07 00:47:21;;;;;;;9.35;2.25;;;2.40;99.90;;;;;;6071422;23;20016;-86
2022/02/07 00:49:46;;;;;;;5.47;1.55;;;2.40;99.90;;;;;;6070856;23;20018;-85
2022/02/07 00:52:12;;;;;;;8.02;2.03;;;2.20;99.90;;;;;;6068936;23;20001;-86
2022/02/07 00:54:38;;;;;;;13.65;2.97;;;2.10;99.90;;;;;;6094968;23;20026;-86
2022/02/07 00:57:03;;;;;;;10.43;2.63;;;2.00;99.90;;;;;;6071435;23;20001;-85
2022/02/07 00:59:29;;;;;;;5.05;1.58;;;2.10;99.90;;;;;;6069322;23;20442;-85
2022/02/07 01:01:55;;;;;;;3.58;0.80;;;2.10;99.90;;;;;;6068597;23;20009;-85
2022/02/07 01:04:23;;;;;;;11.77;3.47;;;2.10;99.90;;;;;;6070091;23;20009;-84
2022/02/07 01:06:48;;;;;;;6.40;1.42;;;2.20;99.90;;;;;;6094221;23;20017;-85
2022/02/07 01:09:19;;;;;;;8.90;2.05;;;2.30;99.90;;;;;;6069416;23;20013;-85
2022/02/07 01:14:36;;;;;;;14.98;4.00;;;2.10;99.90;;;;;;6097781;23;20017;-85
2022/02/07 01:20:02;;;;;;;10.38;2.17;;;2.10;99.90;;;;;;6084506;23;20041;-85
2022/02/07 01:22:47;;;;;;;31.40;4.50;;;2.00;99.90;;;;;;6122250;23;20014;-85
2022/02/07 01:46:05;;;;;;;10.73;3.60;;;2.00;99.90;;;;;;6064650;23;20057;-86
2022/02/07 01:53:14;;;;;;;8.55;1.70;;;2.10;99.90;;;;;;6102139;23;20025;-86
2022/02/07 01:55:43;;;;;;;11.85;1.90;;;2.00;99.90;;;;;;6077951;23;20378;-86
2022/02/07 01:58:09;;;;;;;12.68;1.65;;;2.20;99.90;;;;;;6071178;23;20013;-86
2022/02/07 02:00:35;;;;;;;11.57;1.90;;;2.20;99.90;;;;;;6092897;23;20013;-86
2022/02/07 02:03:01;;;;;;;13.27;2.42;;;2.20;99.90;;;;;;6068852;23;20489;-86
2022/02/07 02:05:36;;;;;;;11.15;1.38;;;2.20;99.90;;;;;;6071139;23;20006;-86
2022/02/07 02:08:11;;;;;;;19.08;2.70;;;2.20;99.90;;;;;;6073987;23;20017;-86
2022/02/07 02:10:40;;;;;;;9.38;1.63;;;2.30;99.90;;;;;;6070254;23;20019;-87
2022/02/07 02:13:10;;;;;;;8.07;1.42;;;2.40;99.90;;;;;;6071386;23;20019;-86
2022/02/07 02:15:59;;;;;;;8.15;1.80;;;2.40;99.90;;;;;;6072171;23;20052;-86
2022/02/07 02:37:46;;;;;;;8.25;0.98;;;2.30;99.90;;;;;;6103943;23;20062;-86
2022/02/07 02:45:45;;;;;;;15.70;2.20;;;2.40;99.90;;;;;;6104309;23;20246;-86
2022/02/07 02:48:19;;;;;;;15.10;1.73;;;2.40;99.90;;;;;;6071000;23;20513;-86
2022/02/07 02:50:48;;;;;;;8.32;1.48;;;2.50;99.90;;;;;;6074489;23;20507;-86
2022/02/07 02:53:15;;;;;;;13.32;1.77;;;2.40;99.90;;;;;;6060511;23;20033;-86
2022/02/07 02:55:42;;;;;;;8.85;2.10;;;2.60;99.90;;;;;;6072862;23;20013;-86
2022/02/07 02:58:09;;;;;;;13.27;1.45;;;2.50;99.90;;;;;;6072195;23;20020;-86
2022/02/07 03:00:34;;;;;;;3.00;0.95;;;2.50;99.90;;;;;;6071626;23;20059;-86
2022/02/07 03:03:02;;;;;;;19.30;2.78;;;2.50;99.90;;;;;;6070042;23;20037;-86
2022/02/07 03:05:27;;;;;;;10.90;1.65;;;2.50;99.90;;;;;;6072850;23;20442;-86
2022/02/07 03:07:53;;;;;;;12.02;1.75;;;2.60;99.90;;;;;;6070903;23;20018;-86
2022/02/07 03:10:43;;;;;;;5.85;1.17;;;2.50;99.90;;;;;;6070478;23;20016;-86
2022/02/07 03:13:13;;;;;;;6.25;1.17;;;2.50;99.90;;;;;;6081789;23;20061;-87
2022/02/07 03:18:23;;;;;;;12.75;1.90;;;2.40;99.90;;;;;;6101877;23;20012;-86
2022/02/07 03:20:49;;;;;;;10.32;1.70;;;2.50;99.90;;;;;;6073461;23;20538;-87
2022/02/07 03:23:14;;;;;;;10.13;1.17;;;2.50;99.90;;;;;;6074263;23;20025;-87
2022/02/07 03:25:40;;;;;;;10.93;1.77;;;2.50;99.90;;;;;;6073867;23;20009;-87
2022/02/07 03:28:06;;;;;;;4.50;0.98;;;2.40;99.90;;;;;;6073823;23;20049;-87
2022/02/07 03:30:31;;;;;;;12.50;3.08;;;2.50;99.90;;;;;;6073377;23;19997;-87
2022/02/07 03:32:57;;;;;;;15.98;2.28;;;2.50;99.90;;;;;;6071884;23;20120;-87
2022/02/07 03:35:22;;;;;;;11.10;2.28;;;2.70;99.90;;;;;;6060066;23;20447;-87
2022/02/07 03:37:48;;;;;;;15.32;2.10;;;2.40;99.90;;;;;;6097166;23;20014;-87
2022/02/07 03:40:13;;;;;;;15.73;1.95;;;2.60;99.90;;;;;;6071480;23;20329;-87
2022/02/07 03:42:39;;;;;;;13.23;1.27;;;2.60;99.90;;;;;;6073862;23;20010;-87
2022/02/07 03:45:05;;;;;;;6.43;1.67;;;2.50;99.90;;;;;;6098139;23;20017;-87
2022/02/07 03:47:31;;;;;;;9.27;1.38;;;2.40;99.90;;;;;;6073824;23;20023;-87
2022/02/07 03:49:57;;;;;;;10.75;2.15;;;2.60;99.90;;;;;;6072238;23;20351;-87
2022/02/07 03:52:23;;;;;;;12.70;1.63;;;2.60;99.90;;;;;;6072735;23;20361;-87
2022/02/07 03:54:48;;;;;;;7.30;1.27;;;2.50;99.90;;;;;;6070799;23;20100;-86
2022/02/07 03:57:15;;;;;;;6.70;1.02;;;2.60;99.90;;;;;;6096419;23;20418;-86
2022/02/07 03:59:40;;;;;;;4.20;0.70;;;2.70;99.90;;;;;;6069665;23;20067;-86
2022/02/07 04:02:06;;;;;;;7.55;1.45;;;2.70;99.90;;;;;;6071282;23;20017;-86
2022/02/07 04:04:32;;;;;;;6.93;0.98;;;2.70;99.90;;;;;;6069803;23;20009;-86
2022/02/07 04:06:57;;;;;;;7.70;1.63;;;2.70;99.90;;;;;;6072127;23;20017;-86
2022/02/07 04:09:28;;;;;;;9.57;1.40;;;2.70;99.90;;;;;;6070577;23;20315;-86
2022/02/07 04:12:04;;;;;;;7.97;1.38;;;2.60;99.90;;;;;;6073590;23;20021;-86
2022/02/07 04:14:30;;;;;;;10.48;1.33;;;2.60;99.90;;;;;;6076001;23;20446;-86
2022/02/07 04:16:55;;;;;;;8.65;1.35;;;2.60;99.90;;;;;;6071562;23;20013;-86
2022/02/07 04:19:23;;;;;;;19.55;1.75;;;2.60;99.90;;;;;;6069978;23;20030;-86
2022/02/07 04:21:51;;;;;;;8.73;1.42;;;2.60;99.90;;;;;;6095653;23;20459;-86
2022/02/07 04:24:18;;;;;;;11.20;0.93;;;2.60;99.90;;;;;;6094453;23;20076;-86
2022/02/07 04:26:44;;;;;;;14.05;1.73;;;2.60;99.90;;;;;;6070098;23;20083;-86
2022/02/07 04:29:09;;;;;;;10.13;2.03;;;2.60;99.90;;;;;;6071419;23;20021;-86
2022/02/07 04:31:37;;;;;;;13.27;1.17;;;2.60;99.90;;;;;;6070548;23;20010;-87
2022/02/07 04:34:03;;;;;;;5.63;0.75;;;2.70;99.90;;;;;;6067976;23;20450;-86
2022/02/07 04:36:29;;;;;;;8.55;1.08;;;2.70;99.90;;;;;;6095363;23;20021;-87
2022/02/07 04:38:54;;;;;;;2.40;0.95;;;2.60;99.90;;;;;;6071274;23;20009;-86
2022/02/07 04:41:20;;;;;;;10.70;1.10;;;2.70;99.90;;;;;;6070046;23;20386;-87
2022/02/07 04:43:53;;;;;;;8.65;1.38;;;2.70;99.90;;;;;;6072193;23;20066;-86
2022/02/07 04:59:22;;;;;;;5.70;1.63;;;2.80;99.90;;;;;;6103363;23;20040;-86
2022/02/07 05:01:53;;;;;;;7.70;1.55;;;2.90;99.90;;;;;;6073395;23;20021;-87
2022/02/07 05:04:30;;;;;;;8.23;0.85;;;2.90;99.90;;;;;;6074420;23;20080;-86
2022/02/07 05:15:09;;;;;;;15.05;2.30;;;3.00;99.90;;;;;;6102128;23;20509;-87
2022/02/07 05:17:37;;;;;;;7.32;1.02;;;2.90;99.90;;;;;;6071076;23;20013;-86
2022/02/07 05:20:06;;;;;;;13.43;1.38;;;2.90;99.90;;;;;;6071108;23;20013;-87
2022/02/07 05:22:32;;;;;;;6.50;0.98;;;2.90;99.90;;;;;;6071033;23;20032;-86
2022/02/07 05:24:58;;;;;;;7.63;1.38;;;3.00;99.90;;;;;;6095116;23;20618;-87
2022/02/07 05:27:23;;;;;;;18.60;1.85;;;3.00;99.90;;;;;;6093815;23;20017;-87
2022/02/07 05:32:35;;;;;;;14.05;2.40;;;3.00;99.90;;;;;;6103580;23;20005;-86
2022/02/07 05:35:00;;;;;;;12.63;2.30;;;3.00;99.90;;;;;;6094103;23;20040;-86
2022/02/07 05:37:28;;;;;;;9.50;1.23;;;3.00;99.90;;;;;;6071877;23;20017;-87
2022/02/07 05:39:58;;;;;;;16.75;2.40;;;3.00;99.90;;;;;;6072419;23;20009;-86
2022/02/07 05:42:24;;;;;;;16.33;2.83;;;3.10;99.90;;;;;;6073312;23;20016;-87
2022/02/07 05:44:50;;;;;;;20.73;2.17;;;3.10;99.90;;;;;;6072410;23;20006;-87
2022/02/07 05:47:16;;;;;;;17.73;2.80;;;3.00;99.90;;;;;;6071290;23;20062;-87
2022/02/07 05:49:41;;;;;;;18.05;2.35;;;3.00;99.90;;;;;;6118721;23;20062;-86
2022/02/07 05:52:07;;;;;;;11.48;1.33;;;3.10;99.90;;;;;;6092440;23;20509;-86
2022/02/07 05:54:33;;;;;;;13.48;1.58;;;3.20;99.90;;;;;;6071155;23;20016;-87
2022/02/07 05:56:58;;;;;;;13.68;1.85;;;3.20;99.90;;;;;;6071183;23;20117;-86
2022/02/07 05:59:26;;;;;;;7.85;1.80;;;3.20;99.90;;;;;;6092962;23;20013;-85
2022/02/07 06:01:52;;;;;;;22.27;2.17;;;3.10;99.90;;;;;;6071923;23;20017;-86
2022/02/07 06:04:17;;;;;;;8.30;1.58;;;3.20;99.90;;;;;;6069972;23;20330;-86
2022/02/07 06:06:43;;;;;;;18.38;4.07;;;3.10;99.90;;;;;;6071698;23;20018;-86
2022/02/07 06:09:08;;;;;;;17.67;1.70;;;3.10;99.90;;;;;;6071070;23;20029;-86
2022/02/07 06:11:34;;;;;;;19.50;2.20;;;3.10;99.90;;;;;;6070150;23;20040;-87
2022/02/07 06:14:00;;;;;;;17.88;3.33;;;3.10;99.90;;;;;;6069630;23;20017;-87
2022/02/07 06:16:27;;;;;;;19.48;3.35;;;3.10;99.90;;;;;;6066418;23;20009;-89
2022/02/07 06:18:56;;;;;;;5.20;1.30;;;3.10;99.90;;;;;;6072484;23;20071;-89
2022/02/07 06:21:23;;;;;;;12.23;1.85;;;3.20;99.90;;;;;;6064167;23;20473;-89
2022/02/07 06:23:48;;;;;;;9.10;2.03;;;3.20;99.90;;;;;;6072712;23;20280;-89
2022/02/07 06:26:14;;;;;;;17.33;2.22;;;3.20;99.90;;;;;;6071865;23;20060;-88
2022/02/07 06:29:04;;;;;;;14.73;2.08;;;3.20;99.90;;;;;;6072973;23;20017;-89
2022/02/07 06:31:29;;;;;;;16.90;2.88;;;3.10;99.90;;;;;;6072058;23;20013;-88
2022/02/07 06:33:55;;;;;;;26.70;3.00;;;3.20;99.90;;;;;;6059194;23;20040;-88
2022/02/07 06:36:20;;;;;;;15.55;2.95;;;3.20;99.90;;;;;;6069706;23;20013;-88
2022/02/07 06:38:47;;;;;;;17.38;2.63;;;3.20;99.90;;;;;;6056962;23;20355;-88
2022/02/07 06:41:13;;;;;;;24.42;3.95;;;3.20;99.90;;;;;;6070616;23;20018;-89
2022/02/07 06:43:39;;;;;;;16.33;2.28;;;3.10;99.90;;;;;;6056623;23;20010;-88
2022/02/07 06:46:04;;;;;;;21.92;3.20;;;3.10;99.90;;;;;;6056635;23;20357;-88
2022/02/07 06:48:30;;;;;;;17.48;2.75;;;3.10;99.90;;;;;;6081418;23;20013;-89
2022/02/07 06:50:59;;;;;;;19.77;2.72;;;3.10;99.90;;;;;;6074485;23;20347;-88
2022/02/07 06:53:25;;;;;;;15.90;2.92;;;3.10;99.90;;;;;;6093904;23;20017;-88
2022/02/07 06:56:11;;;;;;;17.92;4.15;;;3.20;99.90;;;;;;6071584;23;20104;-89
2022/02/07 06:58:40;;;;;;;24.23;3.40;;;3.20;99.90;;;;;;6068581;23;20093;-89
2022/02/07 07:01:18;;;;;;;16.25;2.40;;;3.10;99.90;;;;;;6055756;23;20010;-90
2022/02/07 07:03:46;;;;;;;14.45;2.55;;;3.30;99.90;;;;;;6038478;23;20321;-89
2022/02/07 07:06:15;;;;;;;17.02;2.97;;;3.20;99.90;;;;;;6080837;23;20057;-89
2022/02/07 07:08:51;;;;;;;31.80;3.80;;;3.20;99.90;;;;;;6061067;23;20077;-89
2022/02/07 07:11:23;;;;;;;25.02;3.28;;;3.20;99.90;;;;;;6069400;23;20023;-89
2022/02/07 07:13:54;;;;;;;14.25;2.30;;;3.20;99.90;;;;;;6037625;23;20018;-89
2022/02/07 07:18:47;;;;;;;20.08;2.38;;;3.20;99.90;;;;;;6095314;23;20029;-89
2022/02/07 07:21:16;;;;;;;16.98;2.35;;;3.20;99.90;;;;;;6060998;23;20017;-89
2022/02/07 07:24:16;;;;;;;13.48;2.97;;;3.30;99.90;;;;;;6055417;23;20032;-89
2022/02/07 07:26:45;;;;;;;8.30;2.38;;;3.20;99.90;;;;;;6091958;23;20324;-90
2022/02/07 07:29:22;;;;;;;22.85;4.13;;;3.20;99.90;;;;;;6055335;23;20017;-90
2022/02/07 07:31:54;;;;;;;21.92;4.10;;;3.10;99.90;;;;;;6031218;23;20030;-90
2022/02/07 07:34:23;;;;;;;21.23;2.70;;;3.10;99.90;;;;;;6064919;23;20029;-90
2022/02/07 07:36:55;;;;;;;23.30;3.53;;;3.10;99.90;;;;;;6047270;23;20329;-90
2022/02/07 07:39:20;;;;;;;20.75;3.47;;;3.10;99.90;;;;;;6110646;23;20745;-90
2022/02/07 07:41:52;;;;;;;24.60;2.88;;;3.00;99.90;;;;;;6059992;23;20028;-90
2022/02/07 07:44:48;;;;;;;7.18;1.52;;;3.00;99.90;;;;;;6030666;23;20007;-90
2022/02/07 07:47:19;;;;;;;12.90;2.70;;;3.00;99.90;;;;;;6077763;23;20362;-90
2022/02/07 07:52:14;;;;;;;14.70;2.72;;;3.00;99.90;;;;;;6084089;23;20064;-89
2022/02/07 08:02:40;;;;;;;15.52;2.47;;;3.10;99.90;;;;;;6104250;23;20821;-90
2022/02/07 08:05:48;;;;;;;20.30;3.30;;;3.10;99.90;;;;;;6048742;23;20013;-89
2022/02/07 08:09:14;;;;;;;14.18;2.88;;;3.10;99.90;;;;;;6076393;23;20554;-90
2022/02/07 08:11:42;;;;;;;13.43;2.80;;;3.10;99.90;;;;;;6077553;23;20036;-90
2022/02/07 08:14:16;;;;;;;13.85;2.17;;;3.20;99.90;;;;;;6051865;23;20014;-91
2022/02/07 08:16:52;;;;;;;;;;;;;;;;;;;;;
2022/02/07 08:19:50;;;;;;;8.55;1.98;;;3.20;99.90;;;;;;6048731;23;20610;-90
2022/02/07 08:22:28;;;;;;;8.23;1.58;;;3.20;99.90;;;;;;6083887;23;20044;-91
2022/02/07 08:25:00;;;;;;;4.82;1.77;;;3.30;99.90;;;;;;6063007;23;20081;-90
2022/02/07 08:27:26;;;;;;;12.40;2.55;;;3.40;99.90;;;;;;6074476;23;20092;-90
2022/02/07 08:29:52;;;;;;;12.32;2.30;;;3.40;99.90;;;;;;6072829;23;20051;-90
2022/02/07 08:32:19;;;;;;;10.50;2.28;;;3.50;99.90;;;;;;6070257;23;20068;-90
2022/02/07 08:34:45;;;;;;;10.27;2.00;;;3.70;99.90;;;;;;6071679;23;20013;-90
2022/02/07 08:37:11;;;;;;;14.82;2.20;;;3.70;99.90;;;;;;6073627;23;20010;-90
2022/02/07 08:39:36;;;;;;;14.82;2.00;;;3.80;99.90;;;;;;6073191;23;20089;-90
2022/02/07 08:42:02;;;;;;;16.73;3.38;;;3.90;99.90;;;;;;6072240;23;20478;-89
2022/02/07 08:44:29;;;;;;;5.05;1.50;;;4.00;99.90;;;;;;6074608;23;20009;-89
2022/02/07 08:46:55;;;;;;;11.77;2.75;;;4.00;99.90;;;;;;6096927;23;20032;-89
2022/02/07 08:49:21;;;;;;;22.95;2.90;;;4.00;99.90;;;;;;6071137;23;20032;-89
2022/02/07 08:52:05;;;;;;;20.50;3.03;;;4.10;99.90;;;;;;6073088;23;20014;-89
2022/02/07 08:54:32;;;;;;;11.80;2.53;;;4.20;99.90;;;;;;6074640;23;20019;-89
2022/02/07 08:57:10;;;;;;;16.10;3.22;;;4.20;99.90;;;;;;6098085;23;20013;-88
2022/02/07 08:59:48;;;;;;;17.05;2.08;;;4.20;99.90;;;;;;6079872;23;20017;-90
2022/02/07 09:02:23;;;;;;;21.25;3.30;;;4.30;99.90;;;;;;6080402;23;20361;-91
2022/02/07 09:05:07;;;;;;;26.50;4.80;;;4.40;99.90;;;;;;6073459;23;20406;-90
2022/02/07 09:07:37;;;;;;;10.10;1.42;;;4.40;99.90;;;;;;6077974;23;20014;-90
2022/02/07 09:10:03;;;;;;;12.25;2.72;;;4.40;99.90;;;;;;6043956;23;20020;-90
2022/02/07 09:12:32;;;;;;;8.30;1.15;;;4.50;99.90;;;;;;6070952;23;20013;-90
2022/02/07 09:15:27;;;;;;;20.77;2.20;;;4.60;99.90;;;;;;6048561;23;20061;-90
2022/02/07 09:17:53;;;;;;;11.68;1.80;;;4.70;99.90;;;;;;6041109;23;20010;-90
2022/02/07 09:20:26;;;;;;;26.00;4.80;;;4.70;99.90;;;;;;6060670;23;20040;-90
2022/02/07 09:23:17;;;;;;;15.32;2.72;;;4.70;99.90;;;;;;6065847;23;20462;-90
2022/02/07 09:25:51;;;;;;;20.50;2.92;;;4.80;99.90;;;;;;6057605;23;20002;-90
2022/02/07 09:28:42;;;;;;;11.90;1.48;;;4.90;99.90;;;;;;6061931;23;20017;-91
2022/02/07 09:31:09;;;;;;;23.73;3.53;;;5.00;99.90;;;;;;6075683;23;20024;-91
2022/02/07 09:33:46;;;;;;;19.05;3.85;;;5.10;99.90;;;;;;6029790;23;20289;-90
2022/02/07 09:36:37;;;;;;;22.20;3.90;;;5.10;99.90;;;;;;6062292;23;20123;-90
2022/02/07 09:39:13;;;;;;;18.63;3.33;;;5.20;99.90;;;;;;6068611;23;20462;-91
2022/02/07 09:41:41;;;;;;;12.20;2.22;;;5.30;99.90;;;;;;6060941;23;20695;-90
2022/02/07 09:44:43;;;;;;;23.70;3.33;;;5.30;99.90;;;;;;6079301;23;20524;-91
2022/02/07 09:47:16;;;;;;;23.40;4.07;;;5.40;99.90;;;;;;6071923;23;20006;-90
2022/02/07 09:49:43;;;;;;;19.52;2.50;;;5.40;99.90;;;;;;6086867;23;20028;-90
2022/02/07 09:52:14;;;;;;;16.70;2.53;;;5.40;99.90;;;;;;6056830;23;20061;-90
2022/02/07 09:54:43;;;;;;;15.60;3.20;;;5.40;99.90;;;;;;6029609;23;20032;-90
2022/02/07 09:57:18;;;;;;;23.67;4.10;;;5.50;99.90;;;;;;6076467;23;20093;-90
2022/02/07 10:03:03;;;;;;;8.80;1.70;;;5.50;99.90;;;;;;6057979;23;20026;-91
2022/02/07 10:06:28;;;;;;;;;;;;;;;;;;;;;
2022/02/07 10:09:46;;;;;;;20.50;3.40;;;5.70;99.90;;;;;;6049702;23;20586;-91
2022/02/07 10:12:29;;;;;;;21.90;4.15;;;5.80;99.90;;;;;;6053552;23;20100;-91
2022/02/07 10:18:14;;;;;;;19.13;3.15;;;6.00;99.90;;;;;;6030219;23;20494;-90
2022/02/07 10:44:49;;;;;;;30.30;3.30;;;6.80;99.90;;;;;;6050005;23;20067;-91
2022/02/07 10:47:49;;;;;;;26.88;4.10;;;6.90;99.90;;;;;;6027114;23;20013;-91
2022/02/07 10:50:34;;;;;;;22.90;4.20;;;7.00;99.90;;;;;;6030100;23;20447;-90
2022/02/07 10:53:25;;;;;;;20.73;3.00;;;7.00;99.90;;;;;;6059104;23;20016;-91
2022/02/07 10:55:51;;;;;;;22.40;3.05;;;7.20;99.90;;;;;;6113651;23;20013;-91
2022/02/07 10:58:39;;;;;;;21.23;3.20;;;7.20;99.90;;;;;;6044052;23;20016;-91
2022/02/07 11:01:13;;;;;;;22.05;2.55;;;7.40;99.90;;;;;;6101405;23;20476;-91
2022/02/07 11:03:57;;;;;;;25.08;4.32;;;7.40;99.90;;;;;;6040879;23;20006;-91
2022/02/07 11:06:57;;;;;;;24.45;3.45;;;7.40;99.90;;;;;;6085918;23;20006;-91
2022/02/07 11:09:34;;;;;;;12.52;2.05;;;7.70;99.90;;;;;;6055607;23;20419;-90
2022/02/07 11:14:53;;;;;;;11.00;1.90;;;7.60;99.90;;;;;;6064012;23;20013;-92
2022/02/07 11:26:15;;;;;;;13.63;2.53;;;7.70;99.90;;;;;;6065023;23;20005;-90
2022/02/07 11:29:04;;;;;;;16.98;2.25;;;7.70;99.90;;;;;;6058870;23;20101;-92
2022/02/07 11:31:53;;;;;;;12.70;2.30;;;7.70;99.90;;;;;;6051545;23;20010;-91
2022/02/07 11:34:22;;;;;;;12.98;2.65;;;7.80;99.90;;;;;;6089274;23;20087;-91
2022/02/07 11:36:48;;;;;;;20.40;4.40;;;7.80;99.90;;;;;;6031948;23;20109;-92
2022/02/07 11:39:18;;;;;;;15.70;2.63;;;7.90;99.90;;;;;;6098167;23;20044;-91
2022/02/07 11:41:55;;;;;;;15.68;2.97;;;7.90;99.90;;;;;;6071359;23;20034;-91
2022/02/07 11:44:43;;;;;;;16.10;2.72;;;7.90;99.90;;;;;;6121945;23;20017;-91
2022/02/07 11:48:00;;;;;;;9.60;2.53;;;7.80;99.90;;;;;;6063880;23;20017;-92
2022/02/07 11:50:27;;;;;;;29.73;2.88;;;7.90;99.90;;;;;;5964006;23;20012;-90
2022/02/07 11:52:55;;;;;;;9.52;1.77;;;8.20;99.90;;;;;;5949063;23;20086;-91
2022/02/07 11:55:33;;;;;;;14.48;3.17;;;8.20;99.90;;;;;;6087844;23;20009;-91
2022/02/07 12:00:57;;;;;;;22.20;3.53;;;8.40;99.90;;;;;;6032585;23;20018;-91
2022/02/07 12:03:23;;;;;;;10.00;2.15;;;8.40;99.90;;;;;;6069893;23;20010;-91
2022/02/07 12:05:55;;;;;;;14.00;1.65;;;8.40;99.90;;;;;;6069102;23;20036;-91
2022/02/07 12:08:53;;;;;;;13.52;1.83;;;8.50;99.90;;;;;;6041964;23;20418;-90
2022/02/07 12:11:20;;;;;;;14.43;2.55;;;8.40;99.90;;;;;;6038366;23;20006;-91
2022/02/07 12:13:45;;;;;;;16.02;2.83;;;8.40;99.90;;;;;;6100704;23;20108;-91
2022/02/07 12:16:21;;;;;;;13.98;2.03;;;8.50;99.90;;;;;;6083490;23;20060;-91
2022/02/07 12:19:15;;;;;;;4.68;1.35;;;8.60;99.90;;;;;;6070467;23;20354;-91
2022/02/07 12:21:41;;;;;;;19.48;2.72;;;8.60;99.90;;;;;;6063076;23;20010;-91
2022/02/07 12:24:08;;;;;;;16.52;2.30;;;8.60;99.90;;;;;;6079424;23;20016;-90
2022/02/07 12:26:45;;;;;;;15.93;2.05;;;8.60;99.90;;;;;;6093893;23;20013;-91
2022/02/07 12:29:36;;;;;;;13.05;2.75;;;8.70;99.90;;;;;;6076469;23;20021;-91
2022/02/07 12:32:02;;;;;;;13.05;3.75;;;8.60;99.90;;;;;;6057165;23;20445;-90
2022/02/07 12:34:29;;;;;;;13.90;1.88;;;8.80;99.90;;;;;;6081363;23;20053;-91
2022/02/07 12:36:56;;;;;;;17.40;2.50;;;8.90;99.90;;;;;;6071506;23;20017;-91
2022/02/07 12:39:23;;;;;;;14.50;2.63;;;9.00;99.90;;;;;;6073088;23;20013;-91
2022/02/07 12:42:09;;;;;;;13.15;2.10;;;9.10;99.90;;;;;;6053053;23;20076;-91
2022/02/07 12:44:38;;;;;;;15.18;2.67;;;9.10;99.90;;;;;;6083546;23;20018;-91
2022/02/07 12:47:04;;;;;;;11.20;2.15;;;9.10;99.90;;;;;;6097045;23;20077;-91
2022/02/07 12:49:37;;;;;;;14.20;2.28;;;9.30;99.90;;;;;;6069914;23;20017;-91
2022/02/07 12:52:04;;;;;;;13.45;2.67;;;9.30;99.90;;;;;;6072038;23;20049;-91
2022/02/07 12:54:29;;;;;;;13.05;1.83;;;9.40;99.90;;;;;;6073383;23;20029;-91
2022/02/07 12:57:44;;;;;;;11.57;1.65;;;9.30;99.90;;;;;;6071014;23;20066;-91
2022/02/07 13:00:47;;;;;;;16.55;2.22;;;9.40;99.90;;;;;;6071351;23;20456;-91
2022/02/07 13:03:53;;;;;;;8.32;1.70;;;9.50;99.90;;;;;;6030142;23;20450;-91
2022/02/07 13:06:30;;;;;;;16.42;2.13;;;9.60;99.90;;;;;;6058777;23;20468;-91
2022/02/07 13:09:24;;;;;;;14.35;2.42;;;9.70;99.90;;;;;;5996052;23;20464;-90
2022/02/07 13:12:21;;;;;;;10.63;1.63;;;10.00;99.90;;;;;;6005014;23;20049;-89
2022/02/07 13:15:08;;;;;;;6.82;1.75;;;10.00;99.90;;;;;;6079964;23;20009;-91
2022/02/07 13:17:33;;;;;;;;;;;10.00;99.90;;;;;;6005696;23;20081;-91
2022/02/07 13:20:45;;;;;;;13.33;2.00;;;9.60;99.90;;;;;;6018013;23;20370;-91
2022/02/07 13:23:31;;;;;;;18.33;2.72;;;9.60;99.90;;;;;;6048136;23;20230;-90
2022/02/07 13:25:58;;;;;;;8.07;2.47;;;9.20;99.90;;;;;;6043166;23;20051;-91
2022/02/07 13:28:34;;;;;;;15.70;2.70;;;9.00;99.90;;;;;;6092237;23;20160;-91
2022/02/07 13:31:01;;;;;;;8.35;2.03;;;9.10;99.90;;;;;;6071683;23;20020;-91
2022/02/07 13:33:27;;;;;;;15.18;2.83;;;9.10;99.90;;;;;;6056992;23;20045;-90
2022/02/07 13:35:58;;;;;;;16.10;3.03;;;9.00;99.90;;;;;;6071132;23;20127;-91
2022/02/07 13:38:44;;;;;;;8.50;2.33;;;8.90;99.90;;;;;;6057374;23;20358;-91
2022/02/07 13:41:10;;;;;;;16.88;3.22;;;8.90;99.90;;;;;;6058845;23;20017;-91
2022/02/07 13:43:36;;;;;;;7.88;2.15;;;9.00;99.90;;;;;;6053883;23;20040;-91
2022/02/07 13:46:09;;;;;;;13.25;2.13;;;8.90;99.90;;;;;;6069743;23;20021;-91
2022/02/07 13:48:38;;;;;;;13.30;2.72;;;9.00;99.90;;;;;;6063181;23;20021;-89
2022/02/07 13:51:07;;;;;;;13.55;2.13;;;8.90;99.90;;;;;;6070728;23;20515;-89
2022/02/07 13:53:33;;;;;;;16.52;2.78;;;8.70;99.90;;;;;;6071351;23;20016;-90
2022/02/07 13:56:00;;;;;;;18.65;2.75;;;8.70;99.90;;;;;;6072166;23;20410;-89
2022/02/07 13:58:39;;;;;;;9.45;2.17;;;8.90;99.90;;;;;;6070805;23;20065;-89
2022/02/07 14:01:09;;;;;;;18.08;2.78;;;8.90;99.90;;;;;;6025752;23;20021;-89
2022/02/07 14:03:48;;;;;;;18.55;3.17;;;9.00;99.90;;;;;;6072271;23;20013;-89
2022/02/07 14:10:03;;;;;;;6.95;1.50;;;9.00;99.90;;;;;;6027158;23;20599;-90
2022/02/07 14:12:36;;;;;;;13.05;2.65;;;8.90;99.90;;;;;;6004896;23;20041;-90
2022/02/07 14:15:24;;;;;;;5.75;1.00;;;8.80;99.90;;;;;;6044635;23;20022;-90
2022/02/07 14:19:17;;;;;;;10.05;1.40;;;8.90;99.90;;;;;;6060575;23;20117;-90
2022/02/07 14:21:43;;;;;;;7.20;1.63;;;8.80;99.90;;;;;;6104941;23;20005;-90
2022/02/07 14:24:10;;;;;;;7.75;1.42;;;8.80;99.90;;;;;;6051936;23;20070;-90
2022/02/07 14:26:53;;;;;;;10.77;1.63;;;8.80;99.90;;;;;;6058027;23;20049;-90
2022/02/07 14:29:27;;;;;;;10.65;1.70;;;8.80;99.90;;;;;;6098210;23;20067;-89
2022/02/07 14:31:53;;;;;;;7.35;1.95;;;8.80;99.90;;;;;;6062474;23;20018;-90
2022/02/07 14:34:21;;;;;;;5.22;1.23;;;8.80;99.90;;;;;;6066357;23;20020;-90
2022/02/07 14:36:47;;;;;;;7.93;1.50;;;8.80;99.90;;;;;;6075015;23;20419;-90
2022/02/07 14:39:13;;;;;;;12.15;1.70;;;8.80;99.90;;;;;;6073731;23;20025;-90
2022/02/07 14:41:39;;;;;;;6.55;1.75;;;8.70;99.90;;;;;;6053121;23;20028;-89
2022/02/07 14:50:21;;;;;;;7.07;1.13;;;8.60;99.90;;;;;;6103490;23;20080;-90
2022/02/07 14:52:47;;;;;;;8.60;2.00;;;8.60;99.90;;;;;;6082706;23;20106;-90
2022/02/07 14:55:13;;;;;;;9.50;2.15;;;8.50;99.90;;;;;;6095686;23;20017;-89
2022/02/07 14:57:38;;;;;;;12.05;1.63;;;8.50;99.90;;;;;;6070815;23;20036;-89
2022/02/07 15:00:12;;;;;;;14.38;1.90;;;8.40;99.90;;;;;;6020126;23;20084;-90
2022/02/07 15:02:44;;;;;;;9.65;1.90;;;8.40;99.90;;;;;;6066528;23;20157;-90
2022/02/07 15:05:25;;;;;;;10.30;2.10;;;8.40;99.90;;;;;;6036835;23;20029;-90
2022/02/07 15:08:15;;;;;;;3.55;1.40;;;8.30;99.90;;;;;;6046263;23;20021;-89
2022/02/07 15:10:48;;;;;;;11.48;1.70;;;8.10;99.90;;;;;;6044542;23;20015;-89
2022/02/07 15:13:14;;;;;;;4.90;0.90;;;8.10;99.90;;;;;;6017153;23;20049;-89
2022/02/07 15:16:03;;;;;;;7.72;1.40;;;8.00;99.90;;;;;;6042961;23;20013;-89
2022/02/07 15:18:29;;;;;;;6.32;2.00;;;8.00;99.90;;;;;;6045484;23;20354;-89
2022/02/07 15:20:57;;;;;;;12.07;1.50;;;7.80;99.90;;;;;;6068535;23;20010;-88
2022/02/07 15:23:23;;;;;;;9.63;1.75;;;7.90;99.90;;;;;;6071978;23;20008;-87
2022/02/07 15:25:48;;;;;;;18.38;2.50;;;7.90;99.90;;;;;;6043234;23;20366;-87
2022/02/07 15:28:14;;;;;;;6.03;1.48;;;7.90;99.90;;;;;;6095356;23;20045;-88
2022/02/07 15:30:41;;;;;;;5.22;1.65;;;7.80;99.90;;;;;;6068107;23;20033;-88
2022/02/07 15:33:14;;;;;;;11.45;2.13;;;7.80;99.90;;;;;;6070966;23;20060;-88
2022/02/07 15:35:52;;;;;;;6.22;1.60;;;7.80;99.90;;;;;;6071110;23;20013;-88
2022/02/07 15:38:22;;;;;;;6.75;1.52;;;7.70;99.90;;;;;;6075449;23;20053;-88
2022/02/07 15:40:49;;;;;;;10.20;1.50;;;7.60;99.90;;;;;;6061774;23;20461;-88
2022/02/07 15:43:16;;;;;;;7.93;1.45;;;7.50;99.90;;;;;;6096625;23;20655;-88
2022/02/07 15:52:56;;;;;;;7.70;1.30;;;7.40;99.90;;;;;;6046009;23;20025;-88
2022/02/07 15:55:25;;;;;;;10.18;1.83;;;7.20;99.90;;;;;;6071197;23;20439;-88
2022/02/07 15:57:51;;;;;;;6.35;1.52;;;7.20;99.90;;;;;;6062445;23;20497;-88